Terminal Aerodrome Forecast
Issued by NWS Sterling, VA

Current Version | Previous Version | Graphics & Text | Print | Product List | Glossary Off
Versions: 1 2 3 4 5 6 7 8 9 10 11 12 13 14 15 16 17 18

000
FTUS41 KLWX 110900 AAA
TAFMRB
TAF AMD
KMRB 110900Z 1109/1206 VRB03KT 1SM BR BKN008
     FM111200 VRB03KT 5SM BR SCT050
     FM111400 05004KT P6SM SCT050=

USA.gov is the U.S. government's official web portal to all federal, state and local government web resources and services.